Time;durP1;ratioP1;P1;durP2;ratioP2;P2;SDS_P1;SDS_P2;PMS_P1;PMS_P2;Temp;Humidity;BMP_temperature;BMP_pressure;BME280_temperature;BME280_humidity;BME280_pressure;Samples;Min_cycle;Max_cycle;Signal;HPM_P1;HPM_P2
2022/03/22 00:00:23;;;;;;;14.52;8.35;;;;;;;20.81;32.01;102972.56;5030145;28;20049;-72
2022/03/22 00:02:51;;;;;;;10.48;8.70;;;;;;;20.81;31.67;102969.88;5030920;28;20056;-72
2022/03/22 00:05:18;;;;;;;11.23;7.95;;;;;;;20.80;31.63;102970.84;5031748;28;20049;-83
2022/03/22 00:07:46;;;;;;;9.48;8.45;;;;;;;20.81;31.57;102971.69;5031155;28;20049;-83
2022/03/22 00:10:14;;;;;;;10.15;8.35;;;;;;;20.79;31.67;102974.50;5031764;28;20048;-84
2022/03/22 00:12:42;;;;;;;9.00;8.10;;;;;;;20.79;31.63;102970.94;5031562;28;20041;-84
2022/03/22 00:15:11;;;;;;;11.02;9.35;;;;;;;20.79;31.46;102968.25;5031797;28;20050;-84
2022/03/22 00:17:59;;;;;;;10.30;9.30;;;;;;;20.78;31.35;102969.19;5031011;28;20072;-84
2022/03/22 00:20:27;;;;;;;10.55;8.57;;;;;;;20.77;31.21;102971.00;5045479;28;20049;-84
2022/03/22 00:22:57;;;;;;;10.98;8.43;;;;;;;20.76;31.42;102968.41;5031464;28;20393;-84
2022/03/22 00:25:24;;;;;;;9.30;8.38;;;;;;;20.76;31.27;102963.03;5030555;28;20049;-84
2022/03/22 00:27:52;;;;;;;9.45;8.45;;;;;;;20.74;31.21;102965.78;5030946;28;20052;-84
2022/03/22 00:30:22;;;;;;;14.80;10.18;;;;;;;20.73;30.79;102959.56;5031019;28;20049;-84
2022/03/22 00:32:53;;;;;;;9.63;8.05;;;;;;;20.73;31.13;102967.63;5013575;28;20057;-84
2022/03/22 00:35:26;;;;;;;12.25;9.63;;;;;;;20.72;30.94;102968.59;5031258;28;20053;-84
2022/03/22 00:37:56;;;;;;;9.75;8.63;;;;;;;20.71;31.09;102961.47;5033384;28;20050;-85
2022/03/22 00:40:26;;;;;;;10.95;8.65;;;;;;;20.72;31.04;102962.34;5016482;28;20042;-83
2022/03/22 00:42:55;;;;;;;11.18;8.85;;;;;;;20.71;30.95;102971.38;5034814;28;20046;-83
2022/03/22 00:45:27;;;;;;;10.27;8.95;;;;;;;20.70;30.90;102967.84;5016641;28;20049;-83
2022/03/22 00:47:56;;;;;;;11.30;8.88;;;;;;;20.70;31.01;102964.25;5014967;28;20069;-84
2022/03/22 00:50:27;;;;;;;10.02;8.43;;;;;;;20.70;31.00;102975.91;5032802;28;20042;-84
2022/03/22 00:52:55;;;;;;;12.07;9.32;;;;;;;20.69;30.90;102968.75;5016755;28;20068;-84
2022/03/22 00:55:27;;;;;;;11.27;8.18;;;;;;;20.68;30.66;102969.72;5017086;28;20053;-84
2022/03/22 00:57:55;;;;;;;9.80;8.80;;;;;;;20.67;30.93;102968.00;5034266;28;20514;-84
2022/03/22 01:00:24;;;;;;;11.82;8.27;;;;;;;20.67;30.67;102969.81;5032654;28;20404;-83
2022/03/22 01:02:55;;;;;;;9.65;8.55;;;;;;;20.65;30.63;102966.34;5034625;28;20045;-83
2022/03/22 01:05:25;;;;;;;9.15;8.13;;;;;;;20.65;30.80;102967.19;5034498;28;20056;-83
2022/03/22 01:07:58;;;;;;;9.88;8.77;;;;;;;20.65;30.55;102960.97;5034706;28;20046;-82
2022/03/22 01:10:27;;;;;;;12.23;8.90;;;;;;;20.64;30.77;102962.78;5034404;28;20046;-82
2022/03/22 01:12:55;;;;;;;11.32;8.45;;;;;;;20.63;30.66;102958.38;5034907;28;20056;-82
2022/03/22 01:15:24;;;;;;;11.38;8.68;;;;;;;20.64;30.61;102959.22;5033122;28;20045;-83
2022/03/22 01:17:56;;;;;;;9.63;7.88;;;;;;;20.63;30.85;102962.88;5014550;28;20061;-84
2022/03/22 01:20:26;;;;;;;8.80;7.82;;;;;;;20.61;30.68;102954.88;5033813;28;20045;-84
2022/03/22 01:22:54;;;;;;;9.85;8.85;;;;;;;20.62;30.69;102962.03;5014468;28;20049;-84
2022/03/22 01:25:25;;;;;;;9.38;8.20;;;;;;;20.62;30.70;102955.75;5031944;28;20400;-84
2022/03/22 01:27:54;;;;;;;11.98;8.45;;;;;;;20.61;30.61;102954.88;5034803;28;20049;-84
2022/03/22 01:30:22;;;;;;;9.27;8.05;;;;;;;20.60;30.75;102955.84;5033989;28;20052;-84
2022/03/22 01:32:53;;;;;;;9.90;8.90;;;;;;;20.59;30.57;102959.50;5034141;28;20054;-84
2022/03/22 01:35:24;;;;;;;10.17;8.60;;;;;;;20.59;30.68;102962.19;5034201;28;20042;-85
2022/03/22 01:37:54;;;;;;;10.15;8.52;;;;;;;20.58;30.47;102963.16;5033544;28;20050;-84
2022/03/22 01:40:25;;;;;;;11.68;8.20;;;;;;;20.59;30.51;102955.94;5016011;28;20048;-84
2022/03/22 01:42:53;;;;;;;10.43;9.15;;;;;;;20.57;30.37;102956.00;5034311;28;20052;-85
2022/03/22 01:45:20;;;;;;;10.23;9.13;;;;;;;20.55;30.50;102949.88;5016104;28;20065;-84
2022/03/22 01:47:49;;;;;;;9.63;8.63;;;;;;;20.56;30.66;102945.34;5032396;28;20048;-84
2022/03/22 01:50:19;;;;;;;9.30;8.07;;;;;;;20.55;30.45;102949.88;5031672;28;20041;-84
2022/03/22 01:52:47;;;;;;;11.27;9.23;;;;;;;20.55;30.64;102951.69;5032273;28;20389;-84
2022/03/22 01:55:18;;;;;;;9.68;7.97;;;;;;;20.55;30.57;102952.56;5016010;28;20127;-84
2022/03/22 01:57:47;;;;;;;10.55;8.45;;;;;;;20.54;30.57;102948.16;5033867;28;20507;-84
2022/03/22 02:00:18;;;;;;;9.35;8.43;;;;;;;20.54;30.50;102939.19;5033777;28;20053;-83
2022/03/22 02:05:56;;;;;;;8.45;7.65;;;;;;;20.53;30.70;102945.53;5032398;28;20041;-84
2022/03/22 02:08:30;;;;;;;10.90;8.65;;;;;;;20.53;30.47;102950.91;5033198;28;20060;-83
2022/03/22 02:10:59;;;;;;;8.82;7.93;;;;;;;20.52;30.51;102941.97;5016230;28;20053;-84
2022/03/22 02:13:31;;;;;;;9.27;8.15;;;;;;;20.52;30.59;102938.41;5033045;28;20396;-83
2022/03/22 02:16:01;;;;;;;9.63;8.43;;;;;;;20.51;30.56;102942.94;5015810;28;20050;-84
2022/03/22 02:18:30;;;;;;;9.93;8.85;;;;;;;20.51;30.63;102942.94;5016461;28;20058;-84
2022/03/22 02:20:59;;;;;;;8.98;7.88;;;;;;;20.50;30.53;102946.59;5014749;28;20046;-83
2022/03/22 02:23:52;;;;;;;8.77;7.88;;;;;;;20.51;30.60;102942.06;5032944;28;20046;-83
2022/03/22 02:26:21;;;;;;;10.85;8.52;;;;;;;20.49;30.49;102934.94;5015036;28;20085;-83
2022/03/22 02:28:53;;;;;;;9.63;8.60;;;;;;;20.48;30.72;102935.00;5016177;28;20042;-83
2022/03/22 02:31:22;;;;;;;10.10;8.60;;;;;;;20.48;30.53;102943.97;5033025;28;20049;-83
2022/03/22 02:33:50;;;;;;;8.52;7.63;;;;;;;20.47;30.64;102939.50;5034065;28;20045;-83
2022/03/22 02:36:18;;;;;;;10.57;8.90;;;;;;;20.47;30.52;102938.66;5032527;28;20045;-82
2022/03/22 02:38:46;;;;;;;9.95;8.35;;;;;;;20.46;30.70;102935.09;5032442;28;20065;-83
2022/03/22 02:41:24;;;;;;;10.05;8.30;;;;;;;20.46;30.54;102945.00;5033270;28;20049;-82
2022/03/22 02:43:52;;;;;;;10.82;8.95;;;;;;;20.45;30.65;102938.72;5032848;28;20492;-83
2022/03/22 02:46:20;;;;;;;10.77;8.75;;;;;;;20.45;30.86;102932.47;5014268;28;20057;-83
2022/03/22 02:48:48;;;;;;;9.52;8.27;;;;;;;20.46;30.80;102939.63;5032479;28;20049;-83
2022/03/22 02:51:16;;;;;;;10.20;8.75;;;;;;;20.44;30.75;102942.38;5012986;28;20049;-84
2022/03/22 02:53:43;;;;;;;9.43;8.20;;;;;;;20.43;30.75;102940.66;5030828;28;20056;-83
2022/03/22 02:56:10;;;;;;;10.70;8.68;;;;;;;20.44;30.86;102946.88;5033079;28;20149;-84
2022/03/22 02:58:39;;;;;;;9.27;8.02;;;;;;;20.43;30.68;102943.34;5014473;28;20127;-84
2022/03/22 03:01:06;;;;;;;11.80;9.77;;;;;;;20.42;30.63;102947.00;5031316;28;20060;-84
2022/03/22 03:03:34;;;;;;;9.68;8.65;;;;;;;20.43;30.94;102950.53;5032391;28;20050;-85
2022/03/22 03:06:01;;;;;;;9.13;8.05;;;;;;;20.43;30.84;102948.72;5032803;28;20052;-85
2022/03/22 03:08:29;;;;;;;9.55;8.07;;;;;;;20.42;30.83;102952.38;5032462;28;20052;-86
2022/03/22 03:10:56;;;;;;;10.57;9.20;;;;;;;20.42;30.67;102951.50;5048178;28;20045;-85
2022/03/22 03:13:24;;;;;;;10.45;9.35;;;;;;;20.42;30.83;102951.50;5032173;28;20416;-83
2022/03/22 03:15:52;;;;;;;10.07;9.07;;;;;;;20.42;30.86;102959.59;5032506;28;20048;-83
2022/03/22 03:18:19;;;;;;;9.75;8.70;;;;;;;20.40;30.67;102948.88;5032889;28;20054;-85
2022/03/22 03:20:46;;;;;;;9.57;8.65;;;;;;;20.41;30.78;102947.91;5032422;28;20499;-85
2022/03/22 03:23:14;;;;;;;9.73;8.35;;;;;;;20.41;30.66;102952.44;5031323;28;20050;-84
2022/03/22 03:25:41;;;;;;;10.48;9.48;;;;;;;20.41;30.68;102957.81;5030882;28;20057;-84
2022/03/22 03:28:09;;;;;;;10.25;9.10;;;;;;;20.40;30.83;102961.47;5014108;28;20061;-85
2022/03/22 03:30:36;;;;;;;9.35;8.45;;;;;;;20.40;30.88;102964.16;5031647;28;20052;-85
2022/03/22 03:33:04;;;;;;;9.70;8.75;;;;;;;20.40;30.83;102961.47;5033333;28;20053;-85
2022/03/22 03:35:31;;;;;;;9.90;8.63;;;;;;;20.40;30.80;102964.16;5033246;28;20046;-84
2022/03/22 03:37:59;;;;;;;9.63;8.63;;;;;;;20.39;30.80;102971.38;5014705;28;20037;-83
2022/03/22 03:41:53;;;;;;;9.30;8.38;;;;;;;20.39;30.83;102973.19;5031815;28;20050;-84
2022/03/22 03:43:13;;;;;;;9.23;8.30;;;;;;;20.38;30.78;102977.72;5031838;28;20053;-83
2022/03/22 03:48:26;;;;;;;9.65;8.65;;;;;;;20.38;30.92;102979.53;5031094;28;20046;-84
2022/03/22 03:50:54;;;;;;;10.05;9.00;;;;;;;20.38;31.07;102982.22;5031126;28;20038;-81
2022/03/22 03:53:22;;;;;;;9.18;8.27;;;;;;;20.38;31.25;102977.72;5032187;28;20046;-83
2022/03/22 03:55:50;;;;;;;8.80;7.90;;;;;;;20.38;31.24;102979.53;5031859;28;20046;-84
2022/03/22 03:58:18;;;;;;;9.32;8.40;;;;;;;20.39;31.37;102973.19;5031583;28;20050;-84
2022/03/22 04:00:45;;;;;;;11.52;8.68;;;;;;;20.38;31.37;102974.16;5031335;28;20056;-85
2022/03/22 04:03:12;;;;;;;9.82;8.05;;;;;;;20.39;31.15;102975.88;5031648;28;20050;-85
2022/03/22 04:05:40;;;;;;;9.50;8.50;;;;;;;20.37;31.07;102978.63;5032094;28;20053;-85
2022/03/22 04:08:10;;;;;;;9.85;8.77;;;;;;;20.36;31.10;102981.44;5013768;28;20057;-85
2022/03/22 04:10:37;;;;;;;9.15;8.25;;;;;;;20.35;31.06;102975.19;5031464;28;20052;-85
2022/03/22 04:13:04;;;;;;;10.45;9.00;;;;;;;20.35;30.97;102974.31;5015016;28;20050;-85
2022/03/22 04:15:31;;;;;;;8.77;7.57;;;;;;;20.34;30.92;102964.53;5017992;28;20041;-85
2022/03/22 04:17:59;;;;;;;9.90;8.85;;;;;;;20.34;30.71;102980.66;5035878;28;20041;-85
2022/03/22 04:20:26;;;;;;;10.60;9.45;;;;;;;20.33;30.88;102973.53;5017085;28;20081;-85
2022/03/22 04:22:55;;;;;;;13.25;9.48;;;;;;;20.32;30.92;102979.88;5034054;28;20042;-85
2022/03/22 04:25:23;;;;;;;9.55;8.55;;;;;;;20.32;31.02;102986.13;5017888;28;20053;-85
2022/03/22 04:33:22;;;;;;;9.80;8.55;;;;;;;20.31;30.75;102983.53;5035324;28;20045;-85
2022/03/22 04:35:50;;;;;;;9.70;8.43;;;;;;;20.31;30.81;102988.91;5035209;28;20133;-85
2022/03/22 04:38:18;;;;;;;9.05;8.15;;;;;;;20.29;31.11;102978.22;5035425;28;20049;-85
2022/03/22 04:40:47;;;;;;;8.65;7.80;;;;;;;20.30;30.72;102989.88;5034407;28;20048;-85
2022/03/22 04:43:19;;;;;;;9.13;8.23;;;;;;;20.30;30.86;103004.19;5034803;28;20094;-85
2022/03/22 04:45:46;;;;;;;10.95;8.70;;;;;;;20.29;30.66;102991.66;5034404;28;20046;-84
2022/03/22 04:48:14;;;;;;;9.02;8.07;;;;;;;20.29;30.53;102998.88;5017882;28;20380;-85
2022/03/22 04:50:41;;;;;;;9.15;8.25;;;;;;;20.29;30.74;102996.16;5034414;28;20148;-84
2022/03/22 04:58:40;;;;;;;8.57;7.68;;;;;;;20.27;30.62;102998.97;5034381;28;20049;-84
2022/03/22 05:01:07;;;;;;;9.68;8.27;;;;;;;20.28;30.67;102999.81;5035880;28;20086;-84
2022/03/22 05:03:35;;;;;;;9.65;8.07;;;;;;;20.28;30.66;103005.19;5035300;28;20378;-83
2022/03/22 05:08:49;;;;;;;9.63;8.70;;;;;;;20.26;30.72;103005.31;5034682;28;20373;-83
2022/03/22 05:11:16;;;;;;;9.25;8.25;;;;;;;20.25;30.94;103000.84;5033469;28;20049;-83
2022/03/22 05:13:44;;;;;;;8.55;7.70;;;;;;;20.25;30.76;103001.75;5033973;28;20041;-84
2022/03/22 05:16:12;;;;;;;8.38;7.55;;;;;;;20.25;31.19;103014.31;5017391;28;20142;-84
2022/03/22 05:18:39;;;;;;;8.82;7.95;;;;;;;20.24;30.78;103005.38;5034544;28;20050;-85
2022/03/22 05:21:07;;;;;;;9.13;7.70;;;;;;;20.24;30.77;103010.75;5016173;28;20416;-85
2022/03/22 05:23:35;;;;;;;9.38;8.40;;;;;;;20.23;30.77;103006.31;5033319;28;20053;-84
2022/03/22 05:26:06;;;;;;;8.63;7.80;;;;;;;20.23;30.73;103009.03;5033839;28;20519;-83
2022/03/22 05:28:33;;;;;;;8.80;7.90;;;;;;;20.22;30.69;103015.34;5015110;28;20061;-83
2022/03/22 05:31:00;;;;;;;9.60;8.55;;;;;;;20.21;30.74;103020.81;5034028;28;20057;-82
2022/03/22 05:33:28;;;;;;;10.02;8.55;;;;;;;20.21;30.68;103021.66;5015948;28;20519;-82
2022/03/22 05:35:56;;;;;;;9.27;8.43;;;;;;;20.21;30.79;103035.13;5015987;28;20484;-82
2022/03/22 05:38:26;;;;;;;9.50;8.05;;;;;;;20.20;30.68;103029.81;5033452;28;20404;-84
2022/03/22 05:40:54;;;;;;;9.75;8.23;;;;;;;20.20;30.77;103027.13;5033834;28;20060;-84
2022/03/22 05:43:24;;;;;;;9.07;8.10;;;;;;;20.20;30.80;103030.69;5033277;28;20049;-84
2022/03/22 05:45:51;;;;;;;8.93;8.02;;;;;;;20.19;30.70;103020.91;5033249;28;20050;-84
2022/03/22 05:48:19;;;;;;;8.20;7.40;;;;;;;20.19;30.89;103031.66;5033449;28;20053;-84
2022/03/22 05:50:47;;;;;;;10.68;8.18;;;;;;;20.21;30.86;103036.94;5033683;28;20046;-83
2022/03/22 05:53:15;;;;;;;9.23;8.32;;;;;;;20.19;30.92;103031.66;5016289;28;20037;-83
2022/03/22 05:55:42;;;;;;;8.30;7.50;;;;;;;20.19;30.82;103037.03;5032949;28;20068;-83
2022/03/22 05:58:10;;;;;;;8.48;7.40;;;;;;;20.18;30.58;103032.63;5034133;28;20049;-83
2022/03/22 06:00:37;;;;;;;9.13;8.23;;;;;;;20.18;30.69;103038.00;5034736;28;20065;-87
2022/03/22 06:03:05;;;;;;;9.30;8.30;;;;;;;20.18;30.75;103045.19;5033725;28;20404;-85
2022/03/22 06:05:33;;;;;;;9.68;8.43;;;;;;;20.17;30.80;103047.00;5015263;28;20050;-85
2022/03/22 06:08:00;;;;;;;9.20;8.25;;;;;;;20.18;30.73;103059.50;5032912;28;20060;-85
2022/03/22 06:10:28;;;;;;;8.13;7.32;;;;;;;20.18;30.79;103053.25;5032426;28;20052;-83
2022/03/22 06:12:57;;;;;;;9.02;8.02;;;;;;;20.18;30.81;103055.97;5032592;28;20041;-83
2022/03/22 06:15:26;;;;;;;10.13;7.70;;;;;;;20.17;31.15;103046.13;5032400;28;20417;-83
2022/03/22 06:17:59;;;;;;;9.73;7.53;;;;;;;20.16;30.95;103053.31;5033474;28;20064;-83
2022/03/22 06:20:31;;;;;;;9.73;7.57;;;;;;;20.16;30.84;103053.31;5032344;28;20049;-86
2022/03/22 06:23:04;;;;;;;8.63;7.80;;;;;;;20.16;30.93;103055.16;5031811;28;20049;-85
2022/03/22 06:25:32;;;;;;;8.07;7.05;;;;;;;20.15;31.20;103061.50;5033944;28;20055;-84
2022/03/22 06:28:01;;;;;;;9.00;7.43;;;;;;;20.15;30.82;103062.34;5033261;28;20045;-85
2022/03/22 06:30:28;;;;;;;8.60;7.68;;;;;;;20.16;30.98;103055.16;5032887;28;20037;-85
2022/03/22 06:32:58;;;;;;;10.15;8.70;;;;;;;20.15;31.06;103064.19;5032234;28;20033;-85
2022/03/22 06:35:30;;;;;;;8.70;7.80;;;;;;;20.15;31.10;103064.19;5013934;28;20049;-85
2022/03/22 06:37:59;;;;;;;9.73;7.60;;;;;;;20.14;30.84;103073.22;5032551;28;20054;-86
2022/03/22 06:40:29;;;;;;;8.00;7.18;;;;;;;20.14;30.69;103068.69;5032898;28;20053;-86
2022/03/22 06:42:58;;;;;;;9.48;7.22;;;;;;;20.13;30.57;103075.00;5032862;28;20048;-85
2022/03/22 06:45:25;;;;;;;10.00;7.35;;;;;;;20.13;30.63;103075.00;5032580;28;20053;-86
2022/03/22 06:47:54;;;;;;;8.48;7.10;;;;;;;20.13;30.72;103077.69;5033397;28;20069;-86
2022/03/22 06:50:21;;;;;;;8.32;7.22;;;;;;;20.13;30.52;103072.31;5016353;28;20056;-87
2022/03/22 06:52:49;;;;;;;9.73;7.97;;;;;;;20.13;30.63;103077.69;5033130;28;20481;-87
2022/03/22 06:55:22;;;;;;;9.43;8.20;;;;;;;20.13;30.70;103083.06;5033232;28;20516;-87
2022/03/22 06:57:56;;;;;;;10.23;7.28;;;;;;;20.13;30.54;103080.38;5031532;28;20045;-88
2022/03/22 07:00:27;;;;;;;9.75;7.53;;;;;;;20.13;30.83;103085.75;5010156;28;20385;-88
2022/03/22 07:02:55;;;;;;;8.70;7.82;;;;;;;20.13;30.76;103091.13;5012960;28;20049;-88
2022/03/22 07:05:24;;;;;;;7.35;6.55;;;;;;;20.14;30.64;103092.03;5011469;28;20065;-88
2022/03/22 07:07:52;;;;;;;8.65;7.65;;;;;;;20.13;30.72;103088.44;5011091;28;20053;-87
2022/03/22 07:10:19;;;;;;;9.55;7.55;;;;;;;20.14;30.69;103089.34;5012894;28;20578;-87
2022/03/22 07:13:01;;;;;;;7.88;7.07;;;;;;;20.13;30.55;103084.91;5011275;28;20060;-87
2022/03/22 07:15:35;;;;;;;9.68;7.65;;;;;;;20.14;30.65;103094.72;5013656;28;20049;-87
2022/03/22 07:18:05;;;;;;;10.38;7.45;;;;;;;20.14;30.82;103086.66;5012630;28;20050;-86
2022/03/22 07:20:34;;;;;;;8.75;7.85;;;;;;;20.13;30.57;103088.44;4996585;28;20079;-86
2022/03/22 07:23:02;;;;;;;8.50;6.70;;;;;;;20.14;30.83;103086.66;5013129;28;20049;-86
2022/03/22 07:25:30;;;;;;;8.05;7.13;;;;;;;20.13;30.77;103091.13;5012758;28;20049;-87
2022/03/22 07:27:57;;;;;;;7.70;6.90;;;;;;;20.13;30.69;103096.50;5012427;28;20405;-88
2022/03/22 07:30:25;;;;;;;8.48;7.57;;;;;;;20.13;30.62;103096.50;5012608;28;20057;-87
2022/03/22 07:32:55;;;;;;;8.38;7.30;;;;;;;20.13;30.83;103083.06;5011904;28;20042;-87
2022/03/22 07:35:23;;;;;;;9.02;7.70;;;;;;;20.14;30.70;103086.66;5012407;28;20141;-87
2022/03/22 07:37:51;;;;;;;7.95;7.13;;;;;;;20.13;30.56;103096.50;5013256;28;20046;-86
2022/03/22 07:40:19;;;;;;;9.50;7.68;;;;;;;20.14;30.73;103089.34;5011804;28;20053;-86
2022/03/22 07:42:48;;;;;;;11.18;8.18;;;;;;;20.12;30.55;103081.34;5012319;28;20065;-86
2022/03/22 07:45:19;;;;;;;9.10;7.28;;;;;;;20.12;30.85;103081.34;5011114;28;20054;-88
2022/03/22 07:47:47;;;;;;;8.00;7.05;;;;;;;20.14;30.69;103089.34;5015572;28;20045;-86
2022/03/22 07:53:06;;;;;;;9.35;7.45;;;;;;;20.17;30.87;103092.72;5119231;28;20035;-84
2022/03/22 07:55:40;;;;;;;10.63;7.25;;;;;;;20.20;30.90;103095.25;5097539;28;20059;-85
2022/03/22 07:58:08;;;;;;;;;;;;;;;20.23;30.69;103100.47;5119795;28;20051;-82
2022/03/22 08:00:38;;;;;;;11.68;7.65;;;;;;;20.25;30.68;103103.06;5130293;27;19930;-83
2022/03/22 08:03:10;;;;;;;9.55;7.80;;;;;;;20.28;31.26;103105.59;5140563;27;20043;-85
2022/03/22 08:05:39;;;;;;;9.70;7.75;;;;;;;20.30;30.77;103105.53;5124100;27;20054;-86
2022/03/22 08:08:07;;;;;;;8.85;7.38;;;;;;;20.30;30.90;103111.78;5141088;27;20043;-86
2022/03/22 08:10:55;;;;;;;9.60;7.60;;;;;;;20.32;31.00;103109.00;5140081;27;20410;-86
2022/03/22 08:13:22;;;;;;;8.23;7.07;;;;;;;20.34;31.13;103109.78;5140706;27;20043;-87
2022/03/22 08:15:50;;;;;;;11.40;7.68;;;;;;;20.35;30.88;103104.31;5140182;27;20403;-86
2022/03/22 08:18:17;;;;;;;11.50;7.78;;;;;;;20.38;31.55;103112.22;5140553;27;20043;-86
2022/03/22 08:20:45;;;;;;;10.52;7.93;;;;;;;20.40;31.14;103113.00;5139956;27;20043;-88
2022/03/22 08:23:12;;;;;;;12.40;8.23;;;;;;;20.41;31.12;103109.34;5140354;27;20062;-87
2022/03/22 08:25:43;;;;;;;8.70;7.75;;;;;;;20.42;30.86;103113.78;5122134;27;20398;-84
2022/03/22 08:28:12;;;;;;;10.38;9.05;;;;;;;20.43;31.18;103109.28;5140417;27;20489;-76
2022/03/22 08:30:40;;;;;;;12.05;10.15;;;;;;;20.44;30.02;103109.19;5035412;28;20041;-81
2022/03/22 08:33:10;;;;;;;13.80;10.95;;;;;;;20.42;29.27;103111.09;5034224;28;20045;-83
2022/03/22 08:35:45;;;;;;;14.25;11.85;;;;;;;20.42;29.44;103121.88;5016596;28;20053;-82
2022/03/22 08:38:14;;;;;;;12.45;11.15;;;;;;;20.41;29.10;103106.66;5035342;28;20050;-86
2022/03/22 08:40:42;;;;;;;12.90;11.57;;;;;;;20.39;28.72;103103.19;5018115;28;20053;-86
2022/03/22 08:43:09;;;;;;;14.25;12.30;;;;;;;20.39;28.66;103105.03;5018445;28;20057;-81
2022/03/22 08:45:37;;;;;;;14.65;12.50;;;;;;;20.36;28.55;103099.78;5034517;28;20049;-84
2022/03/22 08:48:12;;;;;;;15.18;13.40;;;;;;;20.36;28.30;103102.50;5035739;28;20045;-85
2022/03/22 08:50:42;;;;;;;13.88;12.48;;;;;;;20.36;28.73;103105.19;5034769;28;20068;-83
2022/03/22 08:53:11;;;;;;;13.43;11.65;;;;;;;20.36;29.67;103097.97;5035998;28;20061;-87
2022/03/22 08:55:44;;;;;;;14.55;11.30;;;;;;;20.41;30.06;103105.78;5017180;28;20045;-83
2022/03/22 08:58:13;;;;;;;15.05;12.50;;;;;;;20.41;28.71;103090.50;5015329;28;20408;-83
2022/03/22 09:00:40;;;;;;;12.93;11.52;;;;;;;20.41;28.65;103097.72;5033438;28;20050;-83
2022/03/22 09:03:10;;;;;;;14.27;12.25;;;;;;;20.42;29.04;103094.09;5050032;28;20400;-80
2022/03/22 09:08:24;;;;;;;13.10;10.93;;;;;;;20.45;29.29;103093.91;5034042;28;20049;-83
2022/03/22 09:10:52;;;;;;;13.88;11.55;;;;;;;20.46;28.91;103095.66;5033461;28;20053;-80
2022/03/22 09:13:20;;;;;;;14.90;13.40;;;;;;;20.45;28.33;103101.97;5033869;28;20057;-78
2022/03/22 09:15:51;;;;;;;13.27;11.85;;;;;;;20.44;29.14;103086.78;5034500;28;20058;-80
2022/03/22 09:18:24;;;;;;;15.00;12.68;;;;;;;20.45;28.46;103092.06;5035061;28;20388;-80
2022/03/22 09:20:52;;;;;;;14.43;12.83;;;;;;;20.45;27.84;103101.97;5034694;28;20045;-80
2022/03/22 09:23:21;;;;;;;17.27;11.80;;;;;;;20.43;27.84;103099.38;5032816;28;20473;-81
2022/03/22 09:25:49;;;;;;;12.95;11.65;;;;;;;20.45;28.86;103093.91;5032822;28;20057;-85
2022/03/22 09:28:16;;;;;;;14.65;11.73;;;;;;;20.46;29.11;103090.28;5002451;28;20135;-89
2022/03/22 09:30:45;;;;;;;15.60;13.50;;;;;;;20.45;28.35;103091.22;5017204;28;20093;-81
2022/03/22 09:33:13;;;;;;;13.20;11.50;;;;;;;20.46;28.65;103090.28;5034005;28;20064;-81
2022/03/22 09:35:40;;;;;;;15.70;12.63;;;;;;;20.45;27.83;103093.91;5016443;28;20037;-78
2022/03/22 09:38:07;;;;;;;14.50;12.75;;;;;;;20.45;27.77;103093.91;5033924;28;20065;-81
2022/03/22 09:40:35;;;;;;;13.82;12.38;;;;;;;20.46;28.13;103092.97;4999264;28;20056;-84
2022/03/22 09:43:02;;;;;;;15.50;13.90;;;;;;;20.46;27.98;103095.66;5032672;28;20484;-82
2022/03/22 09:45:33;;;;;;;14.32;12.77;;;;;;;20.44;27.71;103089.47;5033557;28;20041;-84
2022/03/22 09:48:01;;;;;;;14.30;12.80;;;;;;;20.44;27.29;103090.34;5031710;28;20072;-82
2022/03/22 09:53:17;;;;;;;14.80;12.00;;;;;;;20.43;27.50;103087.75;5017458;28;20057;-81
2022/03/22 09:55:45;;;;;;;13.73;11.88;;;;;;;20.45;27.55;103085.84;5033505;28;20041;-84
2022/03/22 09:58:13;;;;;;;12.30;10.32;;;;;;;20.44;27.37;103089.47;5032491;28;20401;-83
2022/03/22 10:00:41;;;;;;;13.43;11.85;;;;;;;20.42;26.70;103084.19;5031348;28;20057;-81
2022/03/22 10:03:17;;;;;;;16.00;12.45;;;;;;;20.42;26.90;103075.25;5032983;28;20076;-82
2022/03/22 10:06:19;;;;;;;14.10;12.80;;;;;;;20.34;26.30;103083.75;5032414;28;20045;-84
2022/03/22 10:08:51;;;;;;;14.85;12.30;;;;;;;20.32;26.27;103082.09;5032590;28;20390;-85
2022/03/22 10:11:20;;;;;;;13.77;12.38;;;;;;;20.31;25.66;103077.66;5033125;28;20060;-82
2022/03/22 10:13:57;;;;;;;11.55;10.35;;;;;;;20.31;25.76;103070.47;5033317;28;20045;-80
2022/03/22 10:16:25;;;;;;;13.02;11.52;;;;;;;20.33;26.42;103073.91;5016630;28;20046;-87
2022/03/22 10:18:53;;;;;;;13.23;11.20;;;;;;;20.35;26.58;103063.09;5014322;28;20053;-86
2022/03/22 10:21:21;;;;;;;12.23;10.25;;;;;;;20.38;26.88;103069.19;5031129;28;20045;-84
2022/03/22 10:23:51;;;;;;;12.20;9.90;;;;;;;20.40;27.21;103069.09;5048115;28;20060;-80
2022/03/22 10:26:18;;;;;;;10.10;9.10;;;;;;;20.41;27.74;103062.75;5031362;28;20409;-79
2022/03/22 10:28:55;;;;;;;11.85;8.88;;;;;;;20.42;27.90;103065.38;5032360;28;20057;-88
2022/03/22 10:31:34;;;;;;;9.20;8.30;;;;;;;20.44;28.19;103065.28;5014165;28;20054;-85
2022/03/22 10:34:01;;;;;;;10.30;9.00;;;;;;;20.45;28.29;103059.78;5031871;28;20620;-84
2022/03/22 10:36:33;;;;;;;13.98;9.15;;;;;;;20.46;28.34;103060.69;5031159;28;20049;-87
2022/03/22 10:39:04;;;;;;;8.82;7.82;;;;;;;20.47;28.26;103068.66;5031590;28;20052;-80
2022/03/22 10:41:38;;;;;;;9.35;8.25;;;;;;;20.47;28.03;103057.91;5032224;28;20049;-86
2022/03/22 10:44:10;;;;;;;9.73;8.55;;;;;;;20.48;28.01;103056.06;5031526;28;20045;-85
2022/03/22 10:46:38;;;;;;;9.18;8.18;;;;;;;20.48;28.10;103054.28;5031984;28;20076;-83
2022/03/22 10:49:10;;;;;;;8.93;8.02;;;;;;;20.48;28.05;103050.69;5031292;28;20045;-86
2022/03/22 10:51:45;;;;;;;8.88;7.40;;;;;;;20.50;27.77;103051.53;4996751;28;20053;-87
2022/03/22 10:54:17;;;;;;;8.13;7.32;;;;;;;20.48;28.31;103051.59;5031616;28;20033;-88
2022/03/22 10:56:50;;;;;;;10.00;9.00;;;;;;;20.45;25.03;103040.09;5013153;28;20124;-84
2022/03/22 10:59:18;;;;;;;;;;;;;;;20.44;26.49;103044.63;5031067;28;20050;-80
2022/03/22 11:01:47;;;;;;;8.55;7.20;;;;;;;20.45;26.41;103040.09;5031660;28;19921;-88
2022/03/22 11:04:16;;;;;;;11.07;8.20;;;;;;;20.45;26.66;103040.09;5012882;28;20057;-86
2022/03/22 11:06:47;;;;;;;9.00;8.10;;;;;;;20.44;27.62;103036.53;5012836;28;20614;-78
2022/03/22 11:09:22;;;;;;;8.60;7.70;;;;;;;20.44;30.95;103032.97;5031319;28;20045;-81
2022/03/22 11:11:50;;;;;;;10.15;8.40;;;;;;;20.39;30.89;103030.56;5031967;28;20046;-82
2022/03/22 11:14:19;;;;;;;10.13;9.05;;;;;;;20.11;27.72;103028.53;5014258;28;20041;-83
2022/03/22 11:16:48;;;;;;;10.35;8.05;;;;;;;20.21;32.30;103031.56;5014394;28;20046;-89
2022/03/22 11:19:22;;;;;;;8.70;7.88;;;;;;;20.21;31.95;103026.19;5032191;28;20111;-85
2022/03/22 11:21:52;;;;;;;8.57;7.60;;;;;;;20.20;32.56;103025.31;5031817;28;20041;-89
2022/03/22 11:24:27;;;;;;;8.85;6.85;;;;;;;20.23;35.31;103030.53;5015176;28;20052;-84
2022/03/22 11:26:56;;;;;;;8.90;7.32;;;;;;;20.23;36.43;103026.97;4998106;28;20523;-89
2022/03/22 11:29:27;;;;;;;11.90;7.97;;;;;;;20.23;35.96;103017.09;5031684;28;20052;-89
2022/03/22 11:34:41;;;;;;;7.47;6.68;;;;;;;20.23;37.08;103017.09;5013301;28;20492;-76
2022/03/22 11:37:09;;;;;;;7.75;6.47;;;;;;;20.23;37.19;103011.72;5013585;28;20050;-78
2022/03/22 11:42:25;;;;;;;9.90;8.02;;;;;;;20.16;30.13;103007.59;5030957;28;20046;-77
2022/03/22 11:44:59;;;;;;;9.35;8.38;;;;;;;20.10;28.45;103010.66;5031356;28;20049;-75
2022/03/22 11:47:38;;;;;;;7.80;7.00;;;;;;;20.14;34.05;103000.59;5031350;28;20511;-75
2022/03/22 11:50:07;;;;;;;7.78;6.90;;;;;;;20.16;36.91;103004.06;5030741;28;20046;-73
2022/03/22 11:52:35;;;;;;;8.85;7.65;;;;;;;20.14;30.51;103003.28;5030732;28;20045;-75
2022/03/22 11:55:13;;;;;;;8.40;7.38;;;;;;;20.16;27.33;103001.38;5030904;28;20042;-74
2022/03/22 11:57:53;;;;;;;10.50;8.85;;;;;;;20.08;24.79;102988.34;5030861;28;20401;-75
2022/03/22 12:00:51;;;;;;;9.18;8.27;;;;;;;20.04;27.26;102992.16;5030950;28;20065;-75
2022/03/22 12:03:23;;;;;;;9.18;7.88;;;;;;;20.02;32.98;102975.25;5015190;28;20378;-76
2022/03/22 12:05:54;;;;;;;10.07;8.20;;;;;;;20.03;33.38;102978.81;5030420;28;20041;-73